sensor_id;sensor_type;location;lat;lon;timestamp;P1;durP1;ratioP1;P2;durP2;ratioP2
6614;SDS011;3343;42.896;23.912;2022-12-10T00:02:14;4.93;;;2.53;;
6614;SDS011;3343;42.896;23.912;2022-12-10T00:04:42;2.90;;;2.10;;
6614;SDS011;3343;42.896;23.912;2022-12-10T00:07:08;1.87;;;1.50;;
6614;SDS011;3343;42.896;23.912;2022-12-10T00:09:35;5.40;;;1.97;;
6614;SDS011;3343;42.896;23.912;2022-12-10T00:12:03;2.17;;;1.57;;
6614;SDS011;3343;42.896;23.912;2022-12-10T00:14:30;4.93;;;2.23;;
6614;SDS011;3343;42.896;23.912;2022-12-10T00:16:57;4.00;;;1.80;;
6614;SDS011;3343;42.896;23.912;2022-12-10T00:19:24;3.07;;;1.73;;
6614;SDS011;3343;42.896;23.912;2022-12-10T00:21:52;4.00;;;1.80;;
6614;SDS011;3343;42.896;23.912;2022-12-10T00:24:18;2.90;;;1.70;;
6614;SDS011;3343;42.896;23.912;2022-12-10T00:26:45;5.87;;;2.00;;
6614;SDS011;3343;42.896;23.912;2022-12-10T00:29:12;1.57;;;1.47;;
6614;SDS011;3343;42.896;23.912;2022-12-10T00:31:40;2.43;;;2.17;;
6614;SDS011;3343;42.896;23.912;2022-12-10T00:34:07;2.37;;;1.50;;
6614;SDS011;3343;42.896;23.912;2022-12-10T00:36:37;8.57;;;2.43;;
6614;SDS011;3343;42.896;23.912;2022-12-10T00:39:06;4.60;;;2.00;;
6614;SDS011;3343;42.896;23.912;2022-12-10T00:41:33;2.83;;;1.83;;
6614;SDS011;3343;42.896;23.912;2022-12-10T00:44:00;8.73;;;4.03;;
6614;SDS011;3343;42.896;23.912;2022-12-10T00:46:27;5.53;;;3.87;;
6614;SDS011;3343;42.896;23.912;2022-12-10T00:48:55;3.60;;;2.43;;
6614;SDS011;3343;42.896;23.912;2022-12-10T00:51:22;6.93;;;2.63;;
6614;SDS011;3343;42.896;23.912;2022-12-10T00:53:50;7.97;;;5.00;;
6614;SDS011;3343;42.896;23.912;2022-12-10T00:56:21;6.23;;;3.63;;
6614;SDS011;3343;42.896;23.912;2022-12-10T00:58:49;4.37;;;2.27;;
6614;SDS011;3343;42.896;23.912;2022-12-10T01:01:18;4.00;;;2.70;;
6614;SDS011;3343;42.896;23.912;2022-12-10T01:03:47;2.90;;;2.40;;
6614;SDS011;3343;42.896;23.912;2022-12-10T01:06:16;6.03;;;2.10;;
6614;SDS011;3343;42.896;23.912;2022-12-10T01:08:44;4.53;;;2.00;;
6614;SDS011;3343;42.896;23.912;2022-12-10T01:11:12;4.60;;;2.03;;
6614;SDS011;3343;42.896;23.912;2022-12-10T01:13:42;5.77;;;3.40;;
6614;SDS011;3343;42.896;23.912;2022-12-10T01:16:10;5.47;;;2.70;;
6614;SDS011;3343;42.896;23.912;2022-12-10T01:18:38;1.90;;;1.80;;
6614;SDS011;3343;42.896;23.912;2022-12-10T01:21:06;5.57;;;2.47;;
6614;SDS011;3343;42.896;23.912;2022-12-10T01:23:34;5.30;;;2.37;;
6614;SDS011;3343;42.896;23.912;2022-12-10T01:26:03;5.43;;;2.40;;
6614;SDS011;3343;42.896;23.912;2022-12-10T01:28:31;6.33;;;2.20;;
6614;SDS011;3343;42.896;23.912;2022-12-10T01:31:02;4.67;;;2.07;;
6614;SDS011;3343;42.896;23.912;2022-12-10T01:33:31;6.40;;;2.10;;
6614;SDS011;3343;42.896;23.912;2022-12-10T01:36:01;2.83;;;2.03;;
6614;SDS011;3343;42.896;23.912;2022-12-10T01:38:29;2.77;;;1.90;;
6614;SDS011;3343;42.896;23.912;2022-12-10T01:40:56;2.53;;;1.50;;
6614;SDS011;3343;42.896;23.912;2022-12-10T01:43:23;2.70;;;1.80;;
6614;SDS011;3343;42.896;23.912;2022-12-10T01:45:50;2.80;;;1.70;;
6614;SDS011;3343;42.896;23.912;2022-12-10T01:48:18;3.17;;;1.90;;
6614;SDS011;3343;42.896;23.912;2022-12-10T01:50:45;2.80;;;1.80;;
6614;SDS011;3343;42.896;23.912;2022-12-10T01:53:12;2.47;;;2.03;;
6614;SDS011;3343;42.896;23.912;2022-12-10T01:55:44;3.23;;;2.40;;
6614;SDS011;3343;42.896;23.912;2022-12-10T01:58:12;2.53;;;2.00;;
6614;SDS011;3343;42.896;23.912;2022-12-10T02:00:42;1.93;;;1.70;;
6614;SDS011;3343;42.896;23.912;2022-12-10T02:03:18;2.80;;;1.93;;
6614;SDS011;3343;42.896;23.912;2022-12-10T02:05:53;2.10;;;1.60;;
6614;SDS011;3343;42.896;23.912;2022-12-10T02:08:27;4.17;;;1.80;;
6614;SDS011;3343;42.896;23.912;2022-12-10T02:11:00;1.67;;;1.57;;
6614;SDS011;3343;42.896;23.912;2022-12-10T02:13:38;2.37;;;1.83;;
6614;SDS011;3343;42.896;23.912;2022-12-10T02:16:12;2.50;;;1.70;;
6614;SDS011;3343;42.896;23.912;2022-12-10T02:18:43;4.90;;;2.00;;
6614;SDS011;3343;42.896;23.912;2022-12-10T02:21:16;2.73;;;2.00;;
6614;SDS011;3343;42.896;23.912;2022-12-10T02:23:50;5.70;;;1.90;;
6614;SDS011;3343;42.896;23.912;2022-12-10T02:26:22;8.43;;;1.90;;
6614;SDS011;3343;42.896;23.912;2022-12-10T02:29:01;1.93;;;1.60;;
6614;SDS011;3343;42.896;23.912;2022-12-10T02:31:37;4.50;;;2.23;;
6614;SDS011;3343;42.896;23.912;2022-12-10T02:34:08;2.47;;;2.20;;
6614;SDS011;3343;42.896;23.912;2022-12-10T02:36:37;2.23;;;2.00;;
6614;SDS011;3343;42.896;23.912;2022-12-10T02:39:09;5.17;;;1.90;;
6614;SDS011;3343;42.896;23.912;2022-12-10T02:41:39;2.47;;;1.33;;
6614;SDS011;3343;42.896;23.912;2022-12-10T02:44:10;4.90;;;1.60;;
6614;SDS011;3343;42.896;23.912;2022-12-10T02:46:40;2.10;;;1.60;;
6614;SDS011;3343;42.896;23.912;2022-12-10T02:49:11;3.50;;;1.80;;
6614;SDS011;3343;42.896;23.912;2022-12-10T02:51:40;2.90;;;1.80;;
6614;SDS011;3343;42.896;23.912;2022-12-10T02:54:35;4.87;;;2.03;;
6614;SDS011;3343;42.896;23.912;2022-12-10T02:57:05;1.53;;;1.43;;
6614;SDS011;3343;42.896;23.912;2022-12-10T02:59:44;4.57;;;1.80;;
6614;SDS011;3343;42.896;23.912;2022-12-10T03:02:19;2.83;;;1.97;;
6614;SDS011;3343;42.896;23.912;2022-12-10T03:04:56;2.93;;;1.80;;
6614;SDS011;3343;42.896;23.912;2022-12-10T03:07:29;3.10;;;2.13;;
6614;SDS011;3343;42.896;23.912;2022-12-10T03:10:02;4.50;;;1.80;;
6614;SDS011;3343;42.896;23.912;2022-12-10T03:12:36;2.37;;;2.03;;
6614;SDS011;3343;42.896;23.912;2022-12-10T03:15:08;3.23;;;1.77;;
6614;SDS011;3343;42.896;23.912;2022-12-10T03:17:37;2.40;;;1.70;;
6614;SDS011;3343;42.896;23.912;2022-12-10T03:20:06;2.80;;;1.80;;
6614;SDS011;3343;42.896;23.912;2022-12-10T03:22:34;2.03;;;1.80;;
6614;SDS011;3343;42.896;23.912;2022-12-10T03:25:06;3.33;;;1.73;;
6614;SDS011;3343;42.896;23.912;2022-12-10T03:27:37;1.50;;;1.30;;
6614;SDS011;3343;42.896;23.912;2022-12-10T03:30:07;6.80;;;1.70;;
6614;SDS011;3343;42.896;23.912;2022-12-10T03:32:35;1.83;;;1.63;;
6614;SDS011;3343;42.896;23.912;2022-12-10T03:35:03;4.17;;;1.53;;
6614;SDS011;3343;42.896;23.912;2022-12-10T03:37:32;2.53;;;1.60;;
6614;SDS011;3343;42.896;23.912;2022-12-10T03:40:00;1.70;;;1.50;;
6614;SDS011;3343;42.896;23.912;2022-12-10T03:42:29;3.20;;;1.77;;
6614;SDS011;3343;42.896;23.912;2022-12-10T03:44:58;3.63;;;2.00;;
6614;SDS011;3343;42.896;23.912;2022-12-10T03:47:24;3.13;;;2.07;;
6614;SDS011;3343;42.896;23.912;2022-12-10T03:49:51;2.47;;;1.77;;
6614;SDS011;3343;42.896;23.912;2022-12-10T03:52:18;1.67;;;1.40;;
6614;SDS011;3343;42.896;23.912;2022-12-10T03:54:45;4.77;;;1.73;;
6614;SDS011;3343;42.896;23.912;2022-12-10T03:57:12;4.90;;;2.13;;
6614;SDS011;3343;42.896;23.912;2022-12-10T03:59:39;4.13;;;1.47;;
6614;SDS011;3343;42.896;23.912;2022-12-10T04:02:08;2.37;;;1.63;;
6614;SDS011;3343;42.896;23.912;2022-12-10T04:04:35;1.93;;;1.40;;
6614;SDS011;3343;42.896;23.912;2022-12-10T04:07:02;1.50;;;1.40;;
6614;SDS011;3343;42.896;23.912;2022-12-10T04:09:29;3.87;;;1.40;;
6614;SDS011;3343;42.896;23.912;2022-12-10T04:11:56;5.87;;;1.97;;
6614;SDS011;3343;42.896;23.912;2022-12-10T04:14:23;4.50;;;2.13;;
6614;SDS011;3343;42.896;23.912;2022-12-10T04:17:09;3.53;;;2.07;;
6614;SDS011;3343;42.896;23.912;2022-12-10T04:19:36;2.93;;;1.80;;
6614;SDS011;3343;42.896;23.912;2022-12-10T04:22:04;3.37;;;1.80;;
6614;SDS011;3343;42.896;23.912;2022-12-10T04:24:48;1.70;;;1.60;;
6614;SDS011;3343;42.896;23.912;2022-12-10T04:27:33;3.93;;;2.00;;
6614;SDS011;3343;42.896;23.912;2022-12-10T04:30:02;1.50;;;1.40;;
6614;SDS011;3343;42.896;23.912;2022-12-10T04:32:32;6.17;;;1.60;;
6614;SDS011;3343;42.896;23.912;2022-12-10T04:34:59;2.43;;;1.70;;
6614;SDS011;3343;42.896;23.912;2022-12-10T04:37:26;3.50;;;1.53;;
6614;SDS011;3343;42.896;23.912;2022-12-10T04:39:54;1.53;;;1.40;;
6614;SDS011;3343;42.896;23.912;2022-12-10T04:42:22;2.17;;;1.47;;
6614;SDS011;3343;42.896;23.912;2022-12-10T04:44:49;1.70;;;1.17;;
6614;SDS011;3343;42.896;23.912;2022-12-10T04:47:15;4.70;;;1.50;;
6614;SDS011;3343;42.896;23.912;2022-12-10T04:49:44;2.40;;;1.30;;
6614;SDS011;3343;42.896;23.912;2022-12-10T04:52:11;1.20;;;1.10;;
6614;SDS011;3343;42.896;23.912;2022-12-10T04:54:39;1.20;;;1.10;;
6614;SDS011;3343;42.896;23.912;2022-12-10T04:57:07;1.30;;;1.20;;
6614;SDS011;3343;42.896;23.912;2022-12-10T04:59:34;1.93;;;1.30;;
6614;SDS011;3343;42.896;23.912;2022-12-10T05:02:02;2.30;;;1.20;;
6614;SDS011;3343;42.896;23.912;2022-12-10T05:04:29;1.63;;;1.00;;
6614;SDS011;3343;42.896;23.912;2022-12-10T05:06:57;1.30;;;0.90;;
6614;SDS011;3343;42.896;23.912;2022-12-10T05:09:24;1.20;;;1.10;;
6614;SDS011;3343;42.896;23.912;2022-12-10T05:11:51;1.93;;;1.20;;
6614;SDS011;3343;42.896;23.912;2022-12-10T05:14:18;3.43;;;1.30;;
6614;SDS011;3343;42.896;23.912;2022-12-10T05:16:45;1.17;;;1.03;;
6614;SDS011;3343;42.896;23.912;2022-12-10T05:19:15;3.07;;;1.30;;
6614;SDS011;3343;42.896;23.912;2022-12-10T05:21:44;0.93;;;0.93;;
6614;SDS011;3343;42.896;23.912;2022-12-10T05:24:30;5.50;;;1.20;;
6614;SDS011;3343;42.896;23.912;2022-12-10T05:26:57;1.50;;;1.13;;
6614;SDS011;3343;42.896;23.912;2022-12-10T05:29:24;2.90;;;1.40;;
6614;SDS011;3343;42.896;23.912;2022-12-10T05:31:51;1.20;;;1.10;;
6614;SDS011;3343;42.896;23.912;2022-12-10T05:34:17;1.57;;;1.33;;
6614;SDS011;3343;42.896;23.912;2022-12-10T05:36:44;2.83;;;1.73;;
6614;SDS011;3343;42.896;23.912;2022-12-10T05:39:11;1.60;;;1.30;;
6614;SDS011;3343;42.896;23.912;2022-12-10T05:41:40;4.37;;;1.40;;
6614;SDS011;3343;42.896;23.912;2022-12-10T05:44:09;1.50;;;1.40;;
6614;SDS011;3343;42.896;23.912;2022-12-10T05:46:36;4.10;;;2.10;;
6614;SDS011;3343;42.896;23.912;2022-12-10T05:49:03;1.97;;;1.67;;
6614;SDS011;3343;42.896;23.912;2022-12-10T05:51:32;2.77;;;1.50;;
6614;SDS011;3343;42.896;23.912;2022-12-10T05:54:01;1.57;;;1.43;;
6614;SDS011;3343;42.896;23.912;2022-12-10T05:56:28;1.97;;;1.77;;
6614;SDS011;3343;42.896;23.912;2022-12-10T05:58:58;1.50;;;1.40;;
6614;SDS011;3343;42.896;23.912;2022-12-10T06:01:27;2.03;;;1.53;;
6614;SDS011;3343;42.896;23.912;2022-12-10T06:03:56;1.60;;;1.40;;
6614;SDS011;3343;42.896;23.912;2022-12-10T06:06:24;1.33;;;1.13;;
6614;SDS011;3343;42.896;23.912;2022-12-10T06:08:53;1.47;;;1.20;;
6614;SDS011;3343;42.896;23.912;2022-12-10T06:11:20;1.93;;;1.47;;
6614;SDS011;3343;42.896;23.912;2022-12-10T06:13:47;2.70;;;1.40;;
6614;SDS011;3343;42.896;23.912;2022-12-10T06:16:16;4.87;;;1.00;;
6614;SDS011;3343;42.896;23.912;2022-12-10T06:18:43;1.50;;;1.37;;
6614;SDS011;3343;42.896;23.912;2022-12-10T06:21:11;1.13;;;1.03;;
6614;SDS011;3343;42.896;23.912;2022-12-10T06:23:39;1.07;;;1.00;;
6614;SDS011;3343;42.896;23.912;2022-12-10T06:26:07;1.10;;;1.00;;
6614;SDS011;3343;42.896;23.912;2022-12-10T06:28:35;2.37;;;1.43;;
6614;SDS011;3343;42.896;23.912;2022-12-10T06:31:03;4.93;;;1.33;;
6614;SDS011;3343;42.896;23.912;2022-12-10T06:33:32;1.67;;;1.50;;
6614;SDS011;3343;42.896;23.912;2022-12-10T06:35:59;1.93;;;1.60;;
6614;SDS011;3343;42.896;23.912;2022-12-10T06:38:25;2.87;;;2.40;;
6614;SDS011;3343;42.896;23.912;2022-12-10T06:40:52;2.23;;;1.97;;
6614;SDS011;3343;42.896;23.912;2022-12-10T06:43:19;3.47;;;1.80;;
6614;SDS011;3343;42.896;23.912;2022-12-10T06:45:46;2.30;;;1.60;;
6614;SDS011;3343;42.896;23.912;2022-12-10T06:48:13;1.23;;;1.13;;
6614;SDS011;3343;42.896;23.912;2022-12-10T06:50:41;1.80;;;1.00;;
6614;SDS011;3343;42.896;23.912;2022-12-10T06:53:08;2.30;;;1.47;;
6614;SDS011;3343;42.896;23.912;2022-12-10T06:55:36;1.77;;;1.20;;
6614;SDS011;3343;42.896;23.912;2022-12-10T06:58:04;3.93;;;1.73;;
6614;SDS011;3343;42.896;23.912;2022-12-10T07:00:30;2.30;;;1.80;;
6614;SDS011;3343;42.896;23.912;2022-12-10T07:02:58;5.03;;;1.43;;
6614;SDS011;3343;42.896;23.912;2022-12-10T07:05:25;3.37;;;2.60;;
6614;SDS011;3343;42.896;23.912;2022-12-10T07:07:53;6.27;;;2.03;;
6614;SDS011;3343;42.896;23.912;2022-12-10T07:10:19;4.83;;;2.30;;
6614;SDS011;3343;42.896;23.912;2022-12-10T07:12:46;2.87;;;2.27;;
6614;SDS011;3343;42.896;23.912;2022-12-10T07:15:13;7.40;;;2.80;;
6614;SDS011;3343;42.896;23.912;2022-12-10T07:17:40;7.20;;;2.77;;
6614;SDS011;3343;42.896;23.912;2022-12-10T07:20:07;6.87;;;3.47;;
6614;SDS011;3343;42.896;23.912;2022-12-10T07:22:37;2.90;;;1.90;;
6614;SDS011;3343;42.896;23.912;2022-12-10T07:25:05;4.17;;;2.20;;
6614;SDS011;3343;42.896;23.912;2022-12-10T07:27:32;2.23;;;1.50;;
6614;SDS011;3343;42.896;23.912;2022-12-10T07:29:59;9.03;;;1.73;;
6614;SDS011;3343;42.896;23.912;2022-12-10T07:32:26;5.73;;;2.00;;
6614;SDS011;3343;42.896;23.912;2022-12-10T07:34:53;3.07;;;1.73;;
6614;SDS011;3343;42.896;23.912;2022-12-10T07:37:20;4.67;;;2.63;;
6614;SDS011;3343;42.896;23.912;2022-12-10T07:39:47;1.57;;;1.07;;
6614;SDS011;3343;42.896;23.912;2022-12-10T07:42:15;1.67;;;1.40;;
6614;SDS011;3343;42.896;23.912;2022-12-10T07:44:42;5.03;;;2.40;;
6614;SDS011;3343;42.896;23.912;2022-12-10T07:47:08;6.33;;;3.00;;
6614;SDS011;3343;42.896;23.912;2022-12-10T07:49:35;3.50;;;1.90;;
6614;SDS011;3343;42.896;23.912;2022-12-10T07:52:02;4.60;;;3.00;;
6614;SDS011;3343;42.896;23.912;2022-12-10T07:54:29;3.53;;;2.33;;
6614;SDS011;3343;42.896;23.912;2022-12-10T07:56:56;4.53;;;2.70;;
6614;SDS011;3343;42.896;23.912;2022-12-10T07:59:24;3.17;;;2.33;;
6614;SDS011;3343;42.896;23.912;2022-12-10T08:01:51;6.00;;;3.20;;
6614;SDS011;3343;42.896;23.912;2022-12-10T08:04:18;3.73;;;2.70;;
6614;SDS011;3343;42.896;23.912;2022-12-10T08:06:45;3.47;;;2.30;;
6614;SDS011;3343;42.896;23.912;2022-12-10T08:09:13;4.53;;;2.00;;
6614;SDS011;3343;42.896;23.912;2022-12-10T08:11:40;3.30;;;2.13;;
6614;SDS011;3343;42.896;23.912;2022-12-10T08:14:06;4.07;;;2.07;;
6614;SDS011;3343;42.896;23.912;2022-12-10T08:16:35;3.77;;;2.20;;
6614;SDS011;3343;42.896;23.912;2022-12-10T08:19:01;4.83;;;2.77;;
6614;SDS011;3343;42.896;23.912;2022-12-10T08:21:30;4.87;;;2.50;;
6614;SDS011;3343;42.896;23.912;2022-12-10T08:23:59;2.13;;;1.50;;
6614;SDS011;3343;42.896;23.912;2022-12-10T08:26:27;6.80;;;3.30;;
6614;SDS011;3343;42.896;23.912;2022-12-10T08:28:56;6.83;;;2.93;;
6614;SDS011;3343;42.896;23.912;2022-12-10T08:31:24;7.80;;;4.07;;
6614;SDS011;3343;42.896;23.912;2022-12-10T08:33:53;6.50;;;3.87;;
6614;SDS011;3343;42.896;23.912;2022-12-10T08:36:20;8.20;;;4.93;;
6614;SDS011;3343;42.896;23.912;2022-12-10T08:38:47;5.87;;;3.47;;
6614;SDS011;3343;42.896;23.912;2022-12-10T08:41:15;5.03;;;2.30;;
6614;SDS011;3343;42.896;23.912;2022-12-10T08:43:44;5.67;;;2.80;;
6614;SDS011;3343;42.896;23.912;2022-12-10T08:46:11;2.93;;;1.90;;
6614;SDS011;3343;42.896;23.912;2022-12-10T08:48:39;4.00;;;2.00;;
6614;SDS011;3343;42.896;23.912;2022-12-10T08:51:08;5.67;;;3.20;;
6614;SDS011;3343;42.896;23.912;2022-12-10T08:53:37;3.83;;;2.57;;
6614;SDS011;3343;42.896;23.912;2022-12-10T08:56:04;3.43;;;1.70;;
6614;SDS011;3343;42.896;23.912;2022-12-10T08:58:31;6.60;;;3.30;;
6614;SDS011;3343;42.896;23.912;2022-12-10T09:00:58;3.20;;;2.53;;
6614;SDS011;3343;42.896;23.912;2022-12-10T09:03:26;2.77;;;2.00;;
6614;SDS011;3343;42.896;23.912;2022-12-10T09:05:53;6.63;;;3.40;;
6614;SDS011;3343;42.896;23.912;2022-12-10T09:08:21;4.60;;;2.13;;
6614;SDS011;3343;42.896;23.912;2022-12-10T09:10:48;2.50;;;1.90;;
6614;SDS011;3343;42.896;23.912;2022-12-10T09:13:15;1.97;;;1.50;;
6614;SDS011;3343;42.896;23.912;2022-12-10T09:15:48;1.87;;;1.60;;
6614;SDS011;3343;42.896;23.912;2022-12-10T09:18:15;2.03;;;1.73;;
6614;SDS011;3343;42.896;23.912;2022-12-10T09:20:42;3.43;;;2.20;;
6614;SDS011;3343;42.896;23.912;2022-12-10T09:23:09;4.03;;;2.57;;
6614;SDS011;3343;42.896;23.912;2022-12-10T09:25:38;5.27;;;3.10;;
6614;SDS011;3343;42.896;23.912;2022-12-10T09:28:05;4.17;;;3.00;;
6614;SDS011;3343;42.896;23.912;2022-12-10T09:30:31;5.80;;;2.60;;
6614;SDS011;3343;42.896;23.912;2022-12-10T09:32:58;2.53;;;1.50;;
6614;SDS011;3343;42.896;23.912;2022-12-10T09:35:25;4.53;;;1.73;;
6614;SDS011;3343;42.896;23.912;2022-12-10T09:37:52;3.03;;;1.83;;
6614;SDS011;3343;42.896;23.912;2022-12-10T09:40:21;4.10;;;1.80;;
6614;SDS011;3343;42.896;23.912;2022-12-10T09:42:58;6.67;;;1.90;;
6614;SDS011;3343;42.896;23.912;2022-12-10T09:45:32;2.27;;;1.80;;
6614;SDS011;3343;42.896;23.912;2022-12-10T09:48:10;1.83;;;1.20;;
6614;SDS011;3343;42.896;23.912;2022-12-10T09:50:48;1.20;;;0.85;;
6614;SDS011;3343;42.896;23.912;2022-12-10T09:53:21;2.80;;;1.25;;
6614;SDS011;3343;42.896;23.912;2022-12-10T09:55:51;2.40;;;1.27;;
6614;SDS011;3343;42.896;23.912;2022-12-10T09:58:21;1.52;;;1.00;;
6614;SDS011;3343;42.896;23.912;2022-12-10T10:00:51;1.10;;;1.00;;
6614;SDS011;3343;42.896;23.912;2022-12-10T10:03:21;1.40;;;0.90;;
6614;SDS011;3343;42.896;23.912;2022-12-10T10:05:48;2.33;;;0.98;;
6614;SDS011;3343;42.896;23.912;2022-12-10T10:08:21;2.35;;;0.85;;
6614;SDS011;3343;42.896;23.912;2022-12-10T10:10:53;1.88;;;1.05;;
6614;SDS011;3343;42.896;23.912;2022-12-10T10:13:24;1.75;;;1.42;;
6614;SDS011;3343;42.896;23.912;2022-12-10T10:15:57;4.90;;;1.85;;
6614;SDS011;3343;42.896;23.912;2022-12-10T10:18:32;4.05;;;1.35;;
6614;SDS011;3343;42.896;23.912;2022-12-10T10:21:03;0.90;;;0.90;;
6614;SDS011;3343;42.896;23.912;2022-12-10T10:23:32;1.95;;;0.90;;
6614;SDS011;3343;42.896;23.912;2022-12-10T10:26:00;2.85;;;1.83;;
6614;SDS011;3343;42.896;23.912;2022-12-10T10:28:28;1.40;;;1.30;;
6614;SDS011;3343;42.896;23.912;2022-12-10T10:30:55;2.53;;;1.35;;
6614;SDS011;3343;42.896;23.912;2022-12-10T10:33:22;1.85;;;1.30;;
6614;SDS011;3343;42.896;23.912;2022-12-10T10:35:53;1.70;;;1.10;;
6614;SDS011;3343;42.896;23.912;2022-12-10T10:38:22;1.42;;;1.33;;
6614;SDS011;3343;42.896;23.912;2022-12-10T10:40:52;2.63;;;1.45;;
6614;SDS011;3343;42.896;23.912;2022-12-10T10:43:22;1.70;;;1.30;;
6614;SDS011;3343;42.896;23.912;2022-12-10T10:45:53;2.72;;;1.15;;
6614;SDS011;3343;42.896;23.912;2022-12-10T10:48:23;2.00;;;1.27;;
6614;SDS011;3343;42.896;23.912;2022-12-10T10:50:52;1.13;;;0.93;;
6614;SDS011;3343;42.896;23.912;2022-12-10T10:53:24;2.85;;;1.35;;
6614;SDS011;3343;42.896;23.912;2022-12-10T10:55:56;1.13;;;1.02;;
6614;SDS011;3343;42.896;23.912;2022-12-10T10:58:28;1.75;;;1.23;;
6614;SDS011;3343;42.896;23.912;2022-12-10T11:00:58;1.60;;;1.35;;
6614;SDS011;3343;42.896;23.912;2022-12-10T11:03:27;2.25;;;1.20;;
6614;SDS011;3343;42.896;23.912;2022-12-10T11:05:56;1.65;;;1.27;;
6614;SDS011;3343;42.896;23.912;2022-12-10T11:08:24;1.92;;;0.93;;
6614;SDS011;3343;42.896;23.912;2022-12-10T11:10:56;1.02;;;0.93;;
6614;SDS011;3343;42.896;23.912;2022-12-10T11:13:28;2.78;;;1.05;;
6614;SDS011;3343;42.896;23.912;2022-12-10T11:15:59;1.98;;;1.50;;
6614;SDS011;3343;42.896;23.912;2022-12-10T11:18:32;1.45;;;1.30;;
6614;SDS011;3343;42.896;23.912;2022-12-10T11:21:01;1.30;;;1.20;;
6614;SDS011;3343;42.896;23.912;2022-12-10T11:23:31;0.95;;;0.90;;
6614;SDS011;3343;42.896;23.912;2022-12-10T11:26:07;1.55;;;1.20;;
6614;SDS011;3343;42.896;23.912;2022-12-10T11:28:46;2.42;;;1.88;;
6614;SDS011;3343;42.896;23.912;2022-12-10T11:31:35;1.58;;;1.38;;
6614;SDS011;3343;42.896;23.912;2022-12-10T11:34:14;1.45;;;1.35;;
6614;SDS011;3343;42.896;23.912;2022-12-10T11:36:48;1.30;;;1.20;;
6614;SDS011;3343;42.896;23.912;2022-12-10T11:39:30;1.67;;;1.40;;
6614;SDS011;3343;42.896;23.912;2022-12-10T11:42:16;3.30;;;1.30;;
6614;SDS011;3343;42.896;23.912;2022-12-10T11:44:54;1.63;;;1.17;;
6614;SDS011;3343;42.896;23.912;2022-12-10T11:47:31;2.38;;;1.45;;
6614;SDS011;3343;42.896;23.912;2022-12-10T11:50:15;2.10;;;1.35;;
6614;SDS011;3343;42.896;23.912;2022-12-10T11:52:54;2.45;;;1.48;;
6614;SDS011;3343;42.896;23.912;2022-12-10T11:55:31;2.17;;;1.25;;
6614;SDS011;3343;42.896;23.912;2022-12-10T11:58:17;1.37;;;1.10;;
6614;SDS011;3343;42.896;23.912;2022-12-10T12:00:59;3.08;;;1.17;;
6614;SDS011;3343;42.896;23.912;2022-12-10T12:03:46;1.33;;;1.00;;
6614;SDS011;3343;42.896;23.912;2022-12-10T12:06:30;3.30;;;1.13;;
6614;SDS011;3343;42.896;23.912;2022-12-10T12:09:12;1.35;;;1.17;;
6614;SDS011;3343;42.896;23.912;2022-12-10T12:11:49;1.30;;;1.20;;
6614;SDS011;3343;42.896;23.912;2022-12-10T12:14:24;1.75;;;1.58;;
6614;SDS011;3343;42.896;23.912;2022-12-10T12:16:58;2.15;;;1.23;;
6614;SDS011;3343;42.896;23.912;2022-12-10T12:19:34;3.92;;;2.00;;
6614;SDS011;3343;42.896;23.912;2022-12-10T12:22:08;2.75;;;1.98;;
6614;SDS011;3343;42.896;23.912;2022-12-10T12:24:41;1.48;;;1.38;;
6614;SDS011;3343;42.896;23.912;2022-12-10T12:27:13;1.95;;;1.48;;
6614;SDS011;3343;42.896;23.912;2022-12-10T12:29:50;1.77;;;1.27;;
6614;SDS011;3343;42.896;23.912;2022-12-10T12:32:25;1.88;;;1.52;;
6614;SDS011;3343;42.896;23.912;2022-12-10T12:34:58;3.90;;;1.38;;
6614;SDS011;3343;42.896;23.912;2022-12-10T12:37:29;6.82;;;1.83;;
6614;SDS011;3343;42.896;23.912;2022-12-10T12:40:02;3.35;;;1.42;;
6614;SDS011;3343;42.896;23.912;2022-12-10T12:42:38;1.92;;;1.15;;
6614;SDS011;3343;42.896;23.912;2022-12-10T12:45:12;1.77;;;1.40;;
6614;SDS011;3343;42.896;23.912;2022-12-10T12:47:43;2.92;;;1.60;;
6614;SDS011;3343;42.896;23.912;2022-12-10T12:50:23;2.83;;;1.52;;
6614;SDS011;3343;42.896;23.912;2022-12-10T12:52:55;2.43;;;1.40;;
6614;SDS011;3343;42.896;23.912;2022-12-10T12:55:26;1.65;;;1.42;;
6614;SDS011;3343;42.896;23.912;2022-12-10T12:58:01;1.48;;;1.02;;
6614;SDS011;3343;42.896;23.912;2022-12-10T13:00:40;1.48;;;1.38;;
6614;SDS011;3343;42.896;23.912;2022-12-10T13:03:17;4.88;;;1.10;;
6614;SDS011;3343;42.896;23.912;2022-12-10T13:05:55;2.50;;;1.30;;
6614;SDS011;3343;42.896;23.912;2022-12-10T13:08:41;5.82;;;1.60;;
6614;SDS011;3343;42.896;23.912;2022-12-10T13:11:17;2.38;;;1.25;;
6614;SDS011;3343;42.896;23.912;2022-12-10T13:17:02;4.70;;;1.48;;
6614;SDS011;3343;42.896;23.912;2022-12-10T13:19:35;1.48;;;1.17;;
6614;SDS011;3343;42.896;23.912;2022-12-10T13:22:08;3.45;;;1.52;;
6614;SDS011;3343;42.896;23.912;2022-12-10T13:24:47;3.50;;;1.90;;
6614;SDS011;3343;42.896;23.912;2022-12-10T13:27:31;2.20;;;1.63;;
6614;SDS011;3343;42.896;23.912;2022-12-10T13:30:01;3.97;;;1.42;;
6614;SDS011;3343;42.896;23.912;2022-12-10T13:32:52;2.00;;;1.30;;
6614;SDS011;3343;42.896;23.912;2022-12-10T13:35:30;1.50;;;1.40;;
6614;SDS011;3343;42.896;23.912;2022-12-10T13:38:04;2.13;;;1.57;;
6614;SDS011;3343;42.896;23.912;2022-12-10T13:40:43;4.97;;;2.37;;
6614;SDS011;3343;42.896;23.912;2022-12-10T13:43:40;3.13;;;1.53;;
6614;SDS011;3343;42.896;23.912;2022-12-10T13:46:27;4.80;;;1.80;;
6614;SDS011;3343;42.896;23.912;2022-12-10T13:48:59;3.30;;;1.73;;
6614;SDS011;3343;42.896;23.912;2022-12-10T13:51:36;5.67;;;1.93;;
6614;SDS011;3343;42.896;23.912;2022-12-10T13:57:26;1.83;;;1.60;;
6614;SDS011;3343;42.896;23.912;2022-12-10T14:00:07;1.70;;;1.50;;
6614;SDS011;3343;42.896;23.912;2022-12-10T14:02:42;3.50;;;1.93;;
6614;SDS011;3343;42.896;23.912;2022-12-10T14:05:22;6.37;;;2.37;;
6614;SDS011;3343;42.896;23.912;2022-12-10T14:08:17;6.97;;;3.77;;
6614;SDS011;3343;42.896;23.912;2022-12-10T14:10:48;3.77;;;1.63;;
6614;SDS011;3343;42.896;23.912;2022-12-10T14:13:18;4.73;;;1.80;;
6614;SDS011;3343;42.896;23.912;2022-12-10T14:15:52;3.13;;;1.60;;
6614;SDS011;3343;42.896;23.912;2022-12-10T14:18:21;3.23;;;1.87;;
6614;SDS011;3343;42.896;23.912;2022-12-10T14:20:50;3.27;;;1.90;;
6614;SDS011;3343;42.896;23.912;2022-12-10T14:23:21;1.80;;;1.57;;
6614;SDS011;3343;42.896;23.912;2022-12-10T14:26:03;1.93;;;1.20;;
6614;SDS011;3343;42.896;23.912;2022-12-10T14:28:36;1.90;;;1.53;;
6614;SDS011;3343;42.896;23.912;2022-12-10T14:31:05;3.20;;;1.60;;
6614;SDS011;3343;42.896;23.912;2022-12-10T14:33:38;2.60;;;1.50;;
6614;SDS011;3343;42.896;23.912;2022-12-10T14:36:05;3.17;;;1.30;;
6614;SDS011;3343;42.896;23.912;2022-12-10T14:38:33;2.23;;;1.60;;
6614;SDS011;3343;42.896;23.912;2022-12-10T14:41:00;2.93;;;1.50;;
6614;SDS011;3343;42.896;23.912;2022-12-10T14:43:31;3.50;;;1.70;;
6614;SDS011;3343;42.896;23.912;2022-12-10T14:46:03;2.80;;;1.70;;
6614;SDS011;3343;42.896;23.912;2022-12-10T14:48:38;3.63;;;2.40;;
6614;SDS011;3343;42.896;23.912;2022-12-10T14:51:09;7.63;;;2.20;;
6614;SDS011;3343;42.896;23.912;2022-12-10T14:53:40;2.60;;;1.43;;
6614;SDS011;3343;42.896;23.912;2022-12-10T14:56:08;4.00;;;2.17;;
6614;SDS011;3343;42.896;23.912;2022-12-10T14:58:49;3.93;;;1.50;;
6614;SDS011;3343;42.896;23.912;2022-12-10T15:01:22;3.97;;;1.43;;
6614;SDS011;3343;42.896;23.912;2022-12-10T15:03:54;2.30;;;1.53;;
6614;SDS011;3343;42.896;23.912;2022-12-10T15:06:24;1.33;;;1.23;;
6614;SDS011;3343;42.896;23.912;2022-12-10T15:08:52;3.40;;;1.23;;
6614;SDS011;3343;42.896;23.912;2022-12-10T15:11:21;9.67;;;1.63;;
6614;SDS011;3343;42.896;23.912;2022-12-10T15:13:51;5.67;;;2.60;;
6614;SDS011;3343;42.896;23.912;2022-12-10T15:16:27;4.20;;;2.70;;
6614;SDS011;3343;42.896;23.912;2022-12-10T15:18:55;2.93;;;1.40;;
6614;SDS011;3343;42.896;23.912;2022-12-10T15:21:33;4.53;;;1.60;;
6614;SDS011;3343;42.896;23.912;2022-12-10T15:24:09;4.30;;;1.70;;
6614;SDS011;3343;42.896;23.912;2022-12-10T15:26:42;3.87;;;1.80;;
6614;SDS011;3343;42.896;23.912;2022-12-10T15:29:34;3.17;;;1.50;;